Terminal Aerodrome Forecast
Issued by NWS Anchorage, AK

Home | Current Version | Previous Version | Text Only | Print | Product List | Glossary On
Versions: 1 2 3 4 5 6 7 8 9 10 11 12 13 14 15 16 17 18 19 20 21 22 23 24 25 26 27 28 29 30 31 32 33 34 35 36 37 38 39 40 41
000
FTAK31 PANC 171740
TAFANC
TAF
PANC 171740Z 1718/1824 33006KT P6SM VCSH BKN060 BKN100
     FM172000 34008KT P6SM -RA FEW010 SCT050 OVC060
     FM180100 04005KT P6SM VCSH SCT060 BKN080
     FM181000 01010KT P6SM -RA FEW030 OVC060=

USA.gov is the U.S. government's official web portal to all federal, state and local government web resources and services.